sensor_id;sensor_type;location;lat;lon;timestamp;pressure;altitude;pressure_sealevel;temperature;humidity
74659;BME280;63186;51.204;6.536;2023-02-19T00:01:23;101398.06;;;9.11;100.00
74659;BME280;63186;51.204;6.536;2023-02-19T00:03:51;101392.59;;;9.11;100.00
74659;BME280;63186;51.204;6.536;2023-02-19T00:06:17;101403.03;;;9.14;100.00
74659;BME280;63186;51.204;6.536;2023-02-19T00:08:43;101394.47;;;9.15;100.00
74659;BME280;63186;51.204;6.536;2023-02-19T00:11:11;101392.25;;;9.17;100.00
74659;BME280;63186;51.204;6.536;2023-02-19T00:13:41;101395.81;;;9.18;100.00
74659;BME280;63186;51.204;6.536;2023-02-19T00:16:37;101403.81;;;9.19;100.00
74659;BME280;63186;51.204;6.536;2023-02-19T00:19:06;101392.81;;;9.19;100.00
74659;BME280;63186;51.204;6.536;2023-02-19T00:21:31;101390.06;;;9.19;100.00
74659;BME280;63186;51.204;6.536;2023-02-19T00:23:59;101393.09;;;9.18;100.00
74659;BME280;63186;51.204;6.536;2023-02-19T00:26:25;101374.72;;;9.13;100.00
74659;BME280;63186;51.204;6.536;2023-02-19T00:28:53;101374.19;;;9.11;100.00
74659;BME280;63186;51.204;6.536;2023-02-19T00:31:27;101381.31;;;9.12;100.00
74659;BME280;63186;51.204;6.536;2023-02-19T00:33:55;101378.31;;;9.09;100.00
74659;BME280;63186;51.204;6.536;2023-02-19T00:36:21;101375.56;;;9.14;100.00
74659;BME280;63186;51.204;6.536;2023-02-19T00:38:47;101372.81;;;9.14;100.00
74659;BME280;63186;51.204;6.536;2023-02-19T00:41:13;101367.31;;;9.14;100.00
74659;BME280;63186;51.204;6.536;2023-02-19T00:44:02;101375.25;;;9.15;100.00
74659;BME280;63186;51.204;6.536;2023-02-19T00:48:57;101363.47;;;9.10;100.00
74659;BME280;63186;51.204;6.536;2023-02-19T00:51:28;101370.88;;;9.14;100.00
74659;BME280;63186;51.204;6.536;2023-02-19T00:53:54;101356.03;;;9.15;100.00
74659;BME280;63186;51.204;6.536;2023-02-19T00:56:20;101372.22;;;9.17;100.00
74659;BME280;63186;51.204;6.536;2023-02-19T00:58:45;101374.97;;;9.17;100.00
74659;BME280;63186;51.204;6.536;2023-02-19T01:01:11;101368.09;;;9.19;100.00
74659;BME280;63186;51.204;6.536;2023-02-19T01:03:38;101362.31;;;9.21;100.00
74659;BME280;63186;51.204;6.536;2023-02-19T01:06:04;101351.31;;;9.21;100.00
74659;BME280;63186;51.204;6.536;2023-02-19T01:08:30;101362.00;;;9.22;100.00
74659;BME280;63186;51.204;6.536;2023-02-19T01:10:56;101365.28;;;9.24;100.00
74659;BME280;63186;51.204;6.536;2023-02-19T01:13:22;101358.16;;;9.23;100.00
74659;BME280;63186;51.204;6.536;2023-02-19T01:15:47;101354.59;;;9.23;100.00
74659;BME280;63186;51.204;6.536;2023-02-19T01:18:13;101354.88;;;9.21;100.00
74659;BME280;63186;51.204;6.536;2023-02-19T01:20:41;101364.16;;;9.25;100.00
74659;BME280;63186;51.204;6.536;2023-02-19T01:23:07;101357.34;;;9.23;100.00
74659;BME280;63186;51.204;6.536;2023-02-19T01:25:33;101355.69;;;9.22;100.00
74659;BME280;63186;51.204;6.536;2023-02-19T01:27:58;101364.75;;;9.22;100.00
74659;BME280;63186;51.204;6.536;2023-02-19T01:30:24;101360.59;;;9.25;100.00
74659;BME280;63186;51.204;6.536;2023-02-19T01:32:49;101365.53;;;9.28;100.00
74659;BME280;63186;51.204;6.536;2023-02-19T01:35:14;101364.72;;;9.28;100.00
74659;BME280;63186;51.204;6.536;2023-02-19T01:37:40;101366.09;;;9.25;100.00
74659;BME280;63186;51.204;6.536;2023-02-19T01:40:05;101370.22;;;9.28;100.00
74659;BME280;63186;51.204;6.536;2023-02-19T01:42:31;101375.13;;;9.31;100.00
74659;BME280;63186;51.204;6.536;2023-02-19T01:45:27;101366.88;;;9.31;100.00
74659;BME280;63186;51.204;6.536;2023-02-19T01:48:01;101373.19;;;9.31;100.00
74659;BME280;63186;51.204;6.536;2023-02-19T01:50:29;101372.97;;;9.28;100.00
74659;BME280;63186;51.204;6.536;2023-02-19T01:52:56;101371.84;;;9.29;100.00
74659;BME280;63186;51.204;6.536;2023-02-19T01:55:23;101373.25;;;9.26;100.00
74659;BME280;63186;51.204;6.536;2023-02-19T01:57:52;101380.66;;;9.25;100.00
74659;BME280;63186;51.204;6.536;2023-02-19T02:00:19;101372.19;;;9.22;100.00
74659;BME280;63186;51.204;6.536;2023-02-19T02:02:48;101378.22;;;9.19;100.00
74659;BME280;63186;51.204;6.536;2023-02-19T02:05:22;101376.03;;;9.21;100.00
74659;BME280;63186;51.204;6.536;2023-02-19T02:07:49;101377.38;;;9.23;100.00
74659;BME280;63186;51.204;6.536;2023-02-19T02:10:33;101388.06;;;9.25;100.00
74659;BME280;63186;51.204;6.536;2023-02-19T02:12:58;101384.56;;;9.19;100.00
74659;BME280;63186;51.204;6.536;2023-02-19T02:15:28;101379.13;;;9.14;100.00
74659;BME280;63186;51.204;6.536;2023-02-19T02:18:06;101383.78;;;9.14;100.00
74659;BME280;63186;51.204;6.536;2023-02-19T02:20:35;101384.91;;;9.13;100.00
74659;BME280;63186;51.204;6.536;2023-02-19T02:23:17;101377.75;;;9.12;100.00
74659;BME280;63186;51.204;6.536;2023-02-19T02:25:58;101382.72;;;9.10;100.00
74659;BME280;63186;51.204;6.536;2023-02-19T02:31:18;101371.16;;;9.13;100.00
74659;BME280;63186;51.204;6.536;2023-02-19T02:33:52;101377.19;;;9.15;100.00
74659;BME280;63186;51.204;6.536;2023-02-19T02:36:26;101373.63;;;9.14;100.00
74659;BME280;63186;51.204;6.536;2023-02-19T02:38:53;101375.81;;;9.12;100.00
74659;BME280;63186;51.204;6.536;2023-02-19T02:41:21;101370.06;;;9.14;100.00
74659;BME280;63186;51.204;6.536;2023-02-19T02:43:47;101372.53;;;9.10;100.00
74659;BME280;63186;51.204;6.536;2023-02-19T02:46:20;101374.72;;;9.13;100.00
74659;BME280;63186;51.204;6.536;2023-02-19T02:51:33;101379.66;;;9.11;100.00
74659;BME280;63186;51.204;6.536;2023-02-19T02:54:07;101376.94;;;9.11;100.00
74659;BME280;63186;51.204;6.536;2023-02-19T02:56:53;101384.38;;;9.06;100.00
74659;BME280;63186;51.204;6.536;2023-02-19T02:59:23;101377.25;;;9.05;100.00
74659;BME280;63186;51.204;6.536;2023-02-19T03:10:43;101387.13;;;9.06;100.00
74659;BME280;63186;51.204;6.536;2023-02-19T03:13:14;101398.94;;;9.06;100.00
74659;BME280;63186;51.204;6.536;2023-02-19T03:16:07;101401.16;;;9.04;100.00
74659;BME280;63186;51.204;6.536;2023-02-19T03:18:55;101404.16;;;9.08;100.00
74659;BME280;63186;51.204;6.536;2023-02-19T03:21:42;101408.56;;;9.04;100.00
74659;BME280;63186;51.204;6.536;2023-02-19T03:24:10;101409.09;;;9.06;100.00
74659;BME280;63186;51.204;6.536;2023-02-19T03:26:56;101409.09;;;9.06;100.00
74659;BME280;63186;51.204;6.536;2023-02-19T03:29:25;101413.22;;;9.08;100.00
74659;BME280;63186;51.204;6.536;2023-02-19T03:31:57;101425.84;;;9.09;100.00
74659;BME280;63186;51.204;6.536;2023-02-19T03:37:05;101414.34;;;9.02;100.00
74659;BME280;63186;51.204;6.536;2023-02-19T03:39:32;101416.00;;;9.03;100.00
74659;BME280;63186;51.204;6.536;2023-02-19T03:42:15;101421.78;;;9.02;100.00
74659;BME280;63186;51.204;6.536;2023-02-19T03:44:47;101423.41;;;9.03;100.00
74659;BME280;63186;51.204;6.536;2023-02-19T03:47:26;101421.78;;;9.02;100.00
74659;BME280;63186;51.204;6.536;2023-02-19T03:50:01;101420.94;;;9.01;100.00
74659;BME280;63186;51.204;6.536;2023-02-19T03:52:43;101415.19;;;8.97;100.00
74659;BME280;63186;51.204;6.536;2023-02-19T03:58:02;101424.28;;;8.93;100.00
74659;BME280;63186;51.204;6.536;2023-02-19T04:00:31;101434.44;;;8.92;100.00
74659;BME280;63186;51.204;6.536;2023-02-19T04:03:06;101439.41;;;8.90;100.00
74659;BME280;63186;51.204;6.536;2023-02-19T04:05:37;101426.25;;;8.87;100.00
74659;BME280;63186;51.204;6.536;2023-02-19T04:08:10;101434.75;;;8.86;100.00
74659;BME280;63186;51.204;6.536;2023-02-19T04:10:38;101445.19;;;8.89;100.00
74659;BME280;63186;51.204;6.536;2023-02-19T04:13:11;101447.94;;;8.89;100.00
74659;BME280;63186;51.204;6.536;2023-02-19T04:15:40;101461.91;;;8.92;100.00
74659;BME280;63186;51.204;6.536;2023-02-19T04:18:11;101464.94;;;8.91;100.00
74659;BME280;63186;51.204;6.536;2023-02-19T04:20:45;101461.38;;;8.90;100.00
74659;BME280;63186;51.204;6.536;2023-02-19T04:23:11;101462.19;;;8.91;100.00
74659;BME280;63186;51.204;6.536;2023-02-19T04:25:38;101472.88;;;8.92;100.00
74659;BME280;63186;51.204;6.536;2023-02-19T04:28:07;101467.69;;;8.91;100.00
74659;BME280;63186;51.204;6.536;2023-02-19T04:30:32;101468.00;;;8.84;100.00
74659;BME280;63186;51.204;6.536;2023-02-19T04:32:58;101460.56;;;8.85;100.00
74659;BME280;63186;51.204;6.536;2023-02-19T04:35:23;101479.25;;;8.83;100.00
74659;BME280;63186;51.204;6.536;2023-02-19T04:37:48;101480.66;;;8.80;100.00
74659;BME280;63186;51.204;6.536;2023-02-19T04:40:13;101482.84;;;8.78;100.00
74659;BME280;63186;51.204;6.536;2023-02-19T04:42:39;101490.78;;;8.80;100.00
74659;BME280;63186;51.204;6.536;2023-02-19T04:45:04;101494.63;;;8.79;100.00
74659;BME280;63186;51.204;6.536;2023-02-19T04:47:33;101498.78;;;8.76;100.00
74659;BME280;63186;51.204;6.536;2023-02-19T04:49:58;101495.50;;;8.74;100.00
74659;BME280;63186;51.204;6.536;2023-02-19T04:52:23;101494.94;;;8.72;100.00
74659;BME280;63186;51.204;6.536;2023-02-19T04:54:48;101497.16;;;8.70;100.00
74659;BME280;63186;51.204;6.536;2023-02-19T04:57:14;101504.56;;;8.69;100.00
74659;BME280;63186;51.204;6.536;2023-02-19T04:59:42;101506.50;;;8.69;100.00
74659;BME280;63186;51.204;6.536;2023-02-19T05:02:07;101510.34;;;8.68;100.00
74659;BME280;63186;51.204;6.536;2023-02-19T05:04:32;101507.84;;;8.66;100.00
74659;BME280;63186;51.204;6.536;2023-02-19T05:06:58;101510.06;;;8.64;100.00
74659;BME280;63186;51.204;6.536;2023-02-19T05:09:23;101524.63;;;8.65;100.00
74659;BME280;63186;51.204;6.536;2023-02-19T05:11:48;101525.44;;;8.65;100.00
74659;BME280;63186;51.204;6.536;2023-02-19T05:14:13;101522.69;;;8.65;100.00
74659;BME280;63186;51.204;6.536;2023-02-19T05:16:39;101531.22;;;8.64;100.00
74659;BME280;63186;51.204;6.536;2023-02-19T05:19:04;101530.69;;;8.62;100.00
74659;BME280;63186;51.204;6.536;2023-02-19T05:21:29;101535.06;;;8.63;100.00
74659;BME280;63186;51.204;6.536;2023-02-19T05:23:54;101546.31;;;8.61;100.00
74659;BME280;63186;51.204;6.536;2023-02-19T05:26:22;101541.38;;;8.58;100.00
74659;BME280;63186;51.204;6.536;2023-02-19T05:28:49;101543.06;;;8.54;100.00
74659;BME280;63186;51.204;6.536;2023-02-19T05:31:15;101547.16;;;8.52;100.00
74659;BME280;63186;51.204;6.536;2023-02-19T05:33:41;101557.31;;;8.51;100.00
74659;BME280;63186;51.204;6.536;2023-02-19T05:36:10;101558.69;;;8.49;100.00
74659;BME280;63186;51.204;6.536;2023-02-19T05:38:37;101556.22;;;8.47;100.00
74659;BME280;63186;51.204;6.536;2023-02-19T05:41:14;101560.06;;;8.46;100.00
74659;BME280;63186;51.204;6.536;2023-02-19T05:43:41;101561.16;;;8.45;100.00
74659;BME280;63186;51.204;6.536;2023-02-19T05:46:07;101570.22;;;8.46;100.00
74659;BME280;63186;51.204;6.536;2023-02-19T05:48:33;101568.03;;;8.42;100.00
74659;BME280;63186;51.204;6.536;2023-02-19T05:51:06;101574.34;;;8.43;100.00
74659;BME280;63186;51.204;6.536;2023-02-19T05:53:32;101574.06;;;8.45;100.00
74659;BME280;63186;51.204;6.536;2023-02-19T05:55:57;101587.78;;;8.45;100.00
74659;BME280;63186;51.204;6.536;2023-02-19T05:58:23;101574.63;;;8.41;100.00
74659;BME280;63186;51.204;6.536;2023-02-19T06:00:49;101576.28;;;8.42;100.00
74659;BME280;63186;51.204;6.536;2023-02-19T06:03:14;101569.16;;;8.41;100.00
74659;BME280;63186;51.204;6.536;2023-02-19T06:05:39;101585.31;;;8.43;100.00
74659;BME280;63186;51.204;6.536;2023-02-19T06:08:04;101575.72;;;8.40;100.00
74659;BME280;63186;51.204;6.536;2023-02-19T06:10:30;101577.38;;;8.41;100.00
74659;BME280;63186;51.204;6.536;2023-02-19T06:12:55;101597.66;;;8.40;100.00
74659;BME280;63186;51.204;6.536;2023-02-19T06:15:21;101592.72;;;8.37;100.00
74659;BME280;63186;51.204;6.536;2023-02-19T06:17:47;101592.72;;;8.37;100.00
74659;BME280;63186;51.204;6.536;2023-02-19T06:20:12;101594.09;;;8.35;100.00
74659;BME280;63186;51.204;6.536;2023-02-19T06:22:37;101598.47;;;8.31;100.00
74659;BME280;63186;51.204;6.536;2023-02-19T06:25:03;101595.72;;;8.31;100.00
74659;BME280;63186;51.204;6.536;2023-02-19T06:27:29;101602.31;;;8.30;100.00
74659;BME280;63186;51.204;6.536;2023-02-19T06:29:55;101608.63;;;8.30;100.00
74659;BME280;63186;51.204;6.536;2023-02-19T06:32:20;101605.88;;;8.30;100.00
74659;BME280;63186;51.204;6.536;2023-02-19T06:34:45;101608.63;;;8.30;100.00
74659;BME280;63186;51.204;6.536;2023-02-19T06:37:11;101614.94;;;8.31;100.00
74659;BME280;63186;51.204;6.536;2023-02-19T06:39:36;101616.03;;;8.30;100.00
74659;BME280;63186;51.204;6.536;2023-02-19T06:42:01;101617.38;;;8.27;100.00
74659;BME280;63186;51.204;6.536;2023-02-19T06:44:27;101616.56;;;8.27;100.00
74659;BME280;63186;51.204;6.536;2023-02-19T06:46:55;101623.16;;;8.26;100.00
74659;BME280;63186;51.204;6.536;2023-02-19T06:49:21;101631.91;;;8.28;100.00
74659;BME280;63186;51.204;6.536;2023-02-19T06:51:46;101630.84;;;8.29;100.00
74659;BME280;63186;51.204;6.536;2023-02-19T06:54:11;101638.81;;;8.30;100.00
74659;BME280;63186;51.204;6.536;2023-02-19T06:56:38;101640.44;;;8.31;100.00
74659;BME280;63186;51.204;6.536;2023-02-19T06:59:07;101645.09;;;8.31;100.00
74659;BME280;63186;51.204;6.536;2023-02-19T07:01:34;101654.97;;;8.32;100.00
74659;BME280;63186;51.204;6.536;2023-02-19T07:04:00;101666.22;;;8.30;100.00
74659;BME280;63186;51.204;6.536;2023-02-19T07:06:26;101669.78;;;8.31;100.00
74659;BME280;63186;51.204;6.536;2023-02-19T07:08:54;101674.50;;;8.35;100.00
74659;BME280;63186;51.204;6.536;2023-02-19T07:11:19;101670.91;;;8.35;100.00
74659;BME280;63186;51.204;6.536;2023-02-19T07:13:45;101670.91;;;8.35;100.00
74659;BME280;63186;51.204;6.536;2023-02-19T07:16:11;101682.44;;;8.37;100.00
74659;BME280;63186;51.204;6.536;2023-02-19T07:18:38;101674.50;;;8.35;100.00
74659;BME280;63186;51.204;6.536;2023-02-19T07:21:09;101677.78;;;8.37;100.00
74659;BME280;63186;51.204;6.536;2023-02-19T07:23:35;101680.81;;;8.36;100.00
74659;BME280;63186;51.204;6.536;2023-02-19T07:26:00;101674.19;;;8.32;100.00
74659;BME280;63186;51.204;6.536;2023-02-19T07:28:26;101689.53;;;8.33;100.00
74659;BME280;63186;51.204;6.536;2023-02-19T07:30:52;101704.91;;;8.34;100.00
74659;BME280;63186;51.204;6.536;2023-02-19T07:33:17;101705.22;;;8.37;100.00
74659;BME280;63186;51.204;6.536;2023-02-19T07:35:49;101713.72;;;8.36;100.00
74659;BME280;63186;51.204;6.536;2023-02-19T07:38:16;101716.44;;;8.31;100.00
74659;BME280;63186;51.204;6.536;2023-02-19T07:40:41;101720.56;;;8.28;100.00
74659;BME280;63186;51.204;6.536;2023-02-19T07:43:14;101721.63;;;8.32;100.00
74659;BME280;63186;51.204;6.536;2023-02-19T07:45:39;101722.75;;;8.31;100.00
74659;BME280;63186;51.204;6.536;2023-02-19T07:48:04;101727.94;;;8.33;100.00
74659;BME280;63186;51.204;6.536;2023-02-19T07:50:29;101735.41;;;8.37;100.00
74659;BME280;63186;51.204;6.536;2023-02-19T07:52:55;101732.38;;;8.39;100.00
74659;BME280;63186;51.204;6.536;2023-02-19T07:55:20;101736.53;;;8.41;100.00
74659;BME280;63186;51.204;6.536;2023-02-19T07:57:45;101743.91;;;8.46;100.00
74659;BME280;63186;51.204;6.536;2023-02-19T08:00:11;101748.88;;;8.49;100.00
74659;BME280;63186;51.204;6.536;2023-02-19T08:02:36;101752.16;;;8.51;100.00
74659;BME280;63186;51.204;6.536;2023-02-19T08:05:20;101758.47;;;8.52;100.00
74659;BME280;63186;51.204;6.536;2023-02-19T08:07:45;101763.41;;;8.50;100.00
74659;BME280;63186;51.204;6.536;2023-02-19T08:10:10;101762.31;;;8.51;100.00
74659;BME280;63186;51.204;6.536;2023-02-19T08:12:59;101763.13;;;8.51;100.00
74659;BME280;63186;51.204;6.536;2023-02-19T08:15:46;101773.56;;;8.59;100.00
74659;BME280;63186;51.204;6.536;2023-02-19T08:18:12;101772.75;;;8.69;100.00
74659;BME280;63186;51.204;6.536;2023-02-19T08:20:38;101779.91;;;8.80;100.00
74659;BME280;63186;51.204;6.536;2023-02-19T08:23:03;101773.59;;;8.85;100.00
74659;BME280;63186;51.204;6.536;2023-02-19T08:25:29;101774.13;;;8.92;100.00
74659;BME280;63186;51.204;6.536;2023-02-19T08:27:55;101785.66;;;8.99;100.00
74659;BME280;63186;51.204;6.536;2023-02-19T08:30:21;101776.59;;;9.04;100.00
74659;BME280;63186;51.204;6.536;2023-02-19T08:32:47;101780.72;;;9.06;100.00
74659;BME280;63186;51.204;6.536;2023-02-19T08:35:12;101784.00;;;9.34;100.00
74659;BME280;63186;51.204;6.536;2023-02-19T08:37:37;101788.63;;;9.59;100.00
74659;BME280;63186;51.204;6.536;2023-02-19T08:40:03;101785.28;;;9.67;100.00
74659;BME280;63186;51.204;6.536;2023-02-19T08:42:28;101792.13;;;9.74;100.00
74659;BME280;63186;51.204;6.536;2023-02-19T08:44:54;101786.81;;;9.98;99.35
74659;BME280;63186;51.204;6.536;2023-02-19T08:47:19;101795.09;;;9.88;98.11
74659;BME280;63186;51.204;6.536;2023-02-19T08:49:44;101785.81;;;9.69;98.93
74659;BME280;63186;51.204;6.536;2023-02-19T08:52:10;101776.00;;;9.42;100.00
74659;BME280;63186;51.204;6.536;2023-02-19T08:54:35;101792.25;;;9.13;100.00
74659;BME280;63186;51.204;6.536;2023-02-19T08:57:00;101794.47;;;9.01;100.00
74659;BME280;63186;51.204;6.536;2023-02-19T08:59:27;101792.81;;;8.95;100.00
74659;BME280;63186;51.204;6.536;2023-02-19T09:01:53;101792.00;;;8.89;100.00
74659;BME280;63186;51.204;6.536;2023-02-19T09:04:18;101794.72;;;8.84;100.00
74659;BME280;63186;51.204;6.536;2023-02-19T09:06:43;101797.47;;;8.79;100.00
74659;BME280;63186;51.204;6.536;2023-02-19T09:09:09;101805.16;;;8.82;100.00
74659;BME280;63186;51.204;6.536;2023-02-19T09:11:34;101799.69;;;8.82;100.00
74659;BME280;63186;51.204;6.536;2023-02-19T09:13:59;101810.91;;;8.86;100.00
74659;BME280;63186;51.204;6.536;2023-02-19T09:16:26;101809.28;;;8.85;100.00
74659;BME280;63186;51.204;6.536;2023-02-19T09:18:51;101821.38;;;8.84;100.00
74659;BME280;63186;51.204;6.536;2023-02-19T09:21:16;101822.72;;;8.86;100.00
74659;BME280;63186;51.204;6.536;2023-02-19T09:23:41;101824.66;;;8.91;100.00
74659;BME280;63186;51.204;6.536;2023-02-19T09:26:07;101826.03;;;8.98;100.00
74659;BME280;63186;51.204;6.536;2023-02-19T09:28:34;101834.56;;;9.17;100.00
74659;BME280;63186;51.204;6.536;2023-02-19T09:31:05;101843.63;;;9.08;100.00
74659;BME280;63186;51.204;6.536;2023-02-19T09:33:31;101839.78;;;8.93;100.00
74659;BME280;63186;51.204;6.536;2023-02-19T09:36:00;101845.53;;;8.87;100.00
74659;BME280;63186;51.204;6.536;2023-02-19T09:38:25;101844.41;;;8.78;100.00
74659;BME280;63186;51.204;6.536;2023-02-19T09:40:51;101851.00;;;8.72;100.00
74659;BME280;63186;51.204;6.536;2023-02-19T09:43:20;101852.91;;;8.66;100.00
74659;BME280;63186;51.204;6.536;2023-02-19T09:45:46;101846.59;;;8.65;100.00
74659;BME280;63186;51.204;6.536;2023-02-19T09:48:12;101851.84;;;8.77;100.00
74659;BME280;63186;51.204;6.536;2023-02-19T09:50:46;101840.03;;;8.82;100.00
74659;BME280;63186;51.204;6.536;2023-02-19T09:53:26;101836.22;;;9.08;100.00
74659;BME280;63186;51.204;6.536;2023-02-19T09:55:53;101855.16;;;9.45;100.00
74659;BME280;63186;51.204;6.536;2023-02-19T09:58:25;101874.41;;;9.35;100.00
74659;BME280;63186;51.204;6.536;2023-02-19T10:00:53;101871.63;;;9.30;100.00
74659;BME280;63186;51.204;6.536;2023-02-19T10:03:38;101863.94;;;9.32;100.00
74659;BME280;63186;51.204;6.536;2023-02-19T10:06:26;101864.25;;;9.20;100.00
74659;BME280;63186;51.204;6.536;2023-02-19T10:09:20;101876.03;;;9.36;100.00
74659;BME280;63186;51.204;6.536;2023-02-19T10:11:47;101894.56;;;10.31;100.00
74659;BME280;63186;51.204;6.536;2023-02-19T10:14:16;101906.91;;;10.93;95.18
74659;BME280;63186;51.204;6.536;2023-02-19T10:16:45;101911.75;;;10.62;96.13
74659;BME280;63186;51.204;6.536;2023-02-19T10:19:12;101926.69;;;10.51;97.27
74659;BME280;63186;51.204;6.536;2023-02-19T10:21:38;101927.59;;;10.31;97.90
74659;BME280;63186;51.204;6.536;2023-02-19T10:24:05;101923.72;;;10.22;98.80
74659;BME280;63186;51.204;6.536;2023-02-19T10:26:31;101930.91;;;10.18;99.43
74659;BME280;63186;51.204;6.536;2023-02-19T10:29:00;101921.84;;;10.17;100.00
74659;BME280;63186;51.204;6.536;2023-02-19T10:31:25;101919.69;;;9.99;97.81
74659;BME280;63186;51.204;6.536;2023-02-19T10:33:56;101932.09;;;9.86;98.24
74659;BME280;63186;51.204;6.536;2023-02-19T10:36:28;101943.09;;;9.76;100.00
74659;BME280;63186;51.204;6.536;2023-02-19T10:38:56;101952.16;;;9.76;100.00
74659;BME280;63186;51.204;6.536;2023-02-19T10:41:24;101961.78;;;9.84;98.58
74659;BME280;63186;51.204;6.536;2023-02-19T10:44:08;101957.66;;;9.92;99.43
74659;BME280;63186;51.204;6.536;2023-02-19T10:46:43;101959.25;;;10.08;96.56
74659;BME280;63186;51.204;6.536;2023-02-19T10:49:23;101951.03;;;10.03;95.97
74659;BME280;63186;51.204;6.536;2023-02-19T10:51:51;101952.41;;;9.90;96.11
74659;BME280;63186;51.204;6.536;2023-02-19T10:54:33;101964.53;;;9.94;96.35
74659;BME280;63186;51.204;6.536;2023-02-19T10:57:29;101965.34;;;10.05;96.56
74659;BME280;63186;51.204;6.536;2023-02-19T10:59:58;101965.06;;;10.06;96.83
74659;BME280;63186;51.204;6.536;2023-02-19T11:02:26;101976.34;;;9.90;98.64
74659;BME280;63186;51.204;6.536;2023-02-19T11:05:02;101976.38;;;9.74;100.00
74659;BME280;63186;51.204;6.536;2023-02-19T11:07:28;101977.19;;;9.60;100.00
74659;BME280;63186;51.204;6.536;2023-02-19T11:09:54;101981.84;;;9.49;100.00
74659;BME280;63186;51.204;6.536;2023-02-19T11:12:26;101988.72;;;9.51;100.00
74659;BME280;63186;51.204;6.536;2023-02-19T11:14:52;101978.81;;;9.71;100.00
74659;BME280;63186;51.204;6.536;2023-02-19T11:17:28;101973.59;;;9.90;99.72
74659;BME280;63186;51.204;6.536;2023-02-19T11:19:56;101974.66;;;10.09;98.54
74659;BME280;63186;51.204;6.536;2023-02-19T11:22:32;101971.56;;;10.51;97.31
74659;BME280;63186;51.204;6.536;2023-02-19T11:27:33;101955.97;;;11.35;91.41
74659;BME280;63186;51.204;6.536;2023-02-19T11:30:25;101974.47;;;11.30;90.87
74659;BME280;63186;51.204;6.536;2023-02-19T11:32:56;101984.53;;;11.05;90.77
74659;BME280;63186;51.204;6.536;2023-02-19T11:35:22;101983.31;;;10.77;93.43
74659;BME280;63186;51.204;6.536;2023-02-19T11:37:59;101962.78;;;10.44;91.93
74659;BME280;63186;51.204;6.536;2023-02-19T11:43:35;101958.69;;;10.16;93.25
74659;BME280;63186;51.204;6.536;2023-02-19T11:46:22;101960.09;;;10.09;94.13
74659;BME280;63186;51.204;6.536;2023-02-19T11:51:31;101957.06;;;10.10;94.44
74659;BME280;63186;51.204;6.536;2023-02-19T11:56:48;101956.81;;;10.06;93.95
74659;BME280;63186;51.204;6.536;2023-02-19T12:02:26;101959.53;;;10.32;93.04
74659;BME280;63186;51.204;6.536;2023-02-19T12:07:57;101947.41;;;10.38;92.51
74659;BME280;63186;51.204;6.536;2023-02-19T12:10:47;101955.38;;;10.40;91.38
74659;BME280;63186;51.204;6.536;2023-02-19T12:13:39;101961.97;;;10.39;91.39
74659;BME280;63186;51.204;6.536;2023-02-19T12:16:30;101958.41;;;10.43;91.86
74659;BME280;63186;51.204;6.536;2023-02-19T12:19:20;101959.22;;;10.39;91.89
74659;BME280;63186;51.204;6.536;2023-02-19T12:22:29;101964.16;;;10.37;91.75
74659;BME280;63186;51.204;6.536;2023-02-19T12:25:17;101967.25;;;10.25;91.00
74659;BME280;63186;51.204;6.536;2023-02-19T12:30:58;101973.22;;;10.52;91.06
74659;BME280;63186;51.204;6.536;2023-02-19T12:41:28;101973.53;;;10.41;91.10
74659;BME280;63186;51.204;6.536;2023-02-19T12:44:00;101976.31;;;10.30;91.64
74659;BME280;63186;51.204;6.536;2023-02-19T12:46:32;101971.38;;;10.17;92.03
74659;BME280;63186;51.204;6.536;2023-02-19T12:49:09;101984.84;;;10.09;92.35
74659;BME280;63186;51.204;6.536;2023-02-19T12:51:46;101984.88;;;9.98;93.11
74659;BME280;63186;51.204;6.536;2023-02-19T12:54:18;101984.88;;;9.93;94.57
74659;BME280;63186;51.204;6.536;2023-02-19T12:59:35;101978.56;;;9.62;96.61
74659;BME280;63186;51.204;6.536;2023-02-19T13:02:23;101978.28;;;9.48;96.99
74659;BME280;63186;51.204;6.536;2023-02-19T13:05:00;101969.50;;;9.46;97.53
74659;BME280;63186;51.204;6.536;2023-02-19T13:07:37;101976.63;;;9.42;97.11
74659;BME280;63186;51.204;6.536;2023-02-19T13:12:48;101966.19;;;9.39;96.96
74659;BME280;63186;51.204;6.536;2023-02-19T13:15:27;101978.25;;;9.38;97.60
74659;BME280;63186;51.204;6.536;2023-02-19T13:17:56;101991.47;;;9.41;96.66
74659;BME280;63186;51.204;6.536;2023-02-19T13:20:31;101997.22;;;9.45;96.07
74659;BME280;63186;51.204;6.536;2023-02-19T13:23:10;101988.47;;;9.48;96.65
74659;BME280;63186;51.204;6.536;2023-02-19T13:29:07;101995.06;;;9.72;96.84
74659;BME280;63186;51.204;6.536;2023-02-19T13:35:08;101999.47;;;9.78;95.58
74659;BME280;63186;51.204;6.536;2023-02-19T13:37:39;101992.84;;;9.64;95.08
74659;BME280;63186;51.204;6.536;2023-02-19T13:42:51;102003.59;;;9.61;94.04
74659;BME280;63186;51.204;6.536;2023-02-19T13:45:25;101996.44;;;9.60;94.93
74659;BME280;63186;51.204;6.536;2023-02-19T13:50:29;102004.69;;;9.60;94.30
74659;BME280;63186;51.204;6.536;2023-02-19T13:52:59;102003.03;;;9.64;94.71
74659;BME280;63186;51.204;6.536;2023-02-19T14:01:07;102022.28;;;9.99;95.06
74659;BME280;63186;51.204;6.536;2023-02-19T14:06:03;102032.19;;;10.11;94.26
74659;BME280;63186;51.204;6.536;2023-02-19T14:08:54;102029.16;;;9.97;95.31
74659;BME280;63186;51.204;6.536;2023-02-19T14:14:38;102048.16;;;9.78;95.65
74659;BME280;63186;51.204;6.536;2023-02-19T14:20:01;102039.34;;;9.61;96.75
74659;BME280;63186;51.204;6.536;2023-02-19T14:27:45;102044.84;;;9.66;97.03
74659;BME280;63186;51.204;6.536;2023-02-19T14:30:12;102056.66;;;9.71;96.39
74659;BME280;63186;51.204;6.536;2023-02-19T14:32:39;102054.16;;;9.65;95.97